Time;durP1;ratioP1;P1;durP2;ratioP2;P2;SDS_P1;SDS_P2;PMS_P1;PMS_P2;Temp;Humidity;BMP_temperature;BMP_pressure;BME280_temperature;BME280_humidity;BME280_pressure;Samples;Min_cycle;Max_cycle;Signal;HPM_P1;HPM_P2
2022/12/14 00:01:21;;;;;;;14.17;9.97;;;;;;;-3.24;88.90;150547.09;5053898;28;20450;-73
2022/12/14 00:04:06;;;;;;;13.33;9.07;;;;;;;-3.24;89.24;150547.09;5059107;28;20450;-73
2022/12/14 00:06:52;;;;;;;16.40;9.40;;;;;;;-3.13;88.65;150576.53;5071674;28;20488;-73
2022/12/14 00:09:37;;;;;;;19.73;9.80;;;;;;;-3.08;88.41;150589.31;5069525;28;20951;-74
2022/12/14 00:12:24;;;;;;;13.87;9.47;;;;;;;-3.12;88.91;150579.06;5060435;28;20996;-73
2022/12/14 00:15:12;;;;;;;15.90;10.40;;;;;;;-3.13;89.21;150575.25;5053423;28;20466;-74
2022/12/14 00:17:57;;;;;;;13.77;8.73;;;;;;;-3.21;89.65;150554.78;5053217;28;20899;-74
2022/12/14 00:20:43;;;;;;;14.20;9.47;;;;;;;-3.23;89.16;150550.91;5065566;28;20956;-73
2022/12/14 00:23:28;;;;;;;14.63;9.37;;;;;;;-3.21;89.38;150554.78;5061858;28;20441;-73
2022/12/14 00:26:16;;;;;;;18.17;10.00;;;;;;;-3.01;90.20;150604.66;5069541;28;20445;-73
2022/12/14 00:29:01;;;;;;;16.33;10.53;;;;;;;-3.22;89.16;150552.19;5056556;28;20612;-73
2022/12/14 00:31:49;;;;;;;17.30;10.80;;;;;;;-3.21;89.15;150556.06;5060864;28;20438;-73
2022/12/14 00:34:35;;;;;;;12.70;9.00;;;;;;;-3.20;89.35;150557.31;5052877;28;20957;-72
2022/12/14 00:37:20;;;;;;;13.40;10.47;;;;;;;-3.24;89.30;150547.09;5053713;28;20406;-73
2022/12/14 00:40:07;;;;;;;15.37;10.07;;;;;;;-3.33;89.38;150524.03;5058865;28;21052;-73
2022/12/14 00:42:52;;;;;;;14.27;10.20;;;;;;;-3.36;90.04;150516.41;5057090;28;20491;-73
2022/12/14 00:45:38;;;;;;;14.43;10.27;;;;;;;-3.33;90.14;150525.31;5059079;28;20480;-73
2022/12/14 00:48:25;;;;;;;18.30;10.30;;;;;;;-3.34;91.00;150521.50;5065289;28;20821;-73
2022/12/14 00:51:13;;;;;;;16.43;9.80;;;;;;;-3.25;91.01;150544.50;5059582;28;20956;-73
2022/12/14 00:53:58;;;;;;;15.50;10.53;;;;;;;-3.21;90.20;150554.78;5052390;28;20430;-73
2022/12/14 00:56:43;;;;;;;15.00;10.10;;;;;;;-3.17;90.29;150565.00;5056817;28;20449;-72
2022/12/14 00:59:29;;;;;;;17.60;9.97;;;;;;;-3.28;90.44;150536.84;5050829;28;20577;-73
2022/12/14 01:02:15;;;;;;;16.50;9.87;;;;;;;-3.31;91.51;150530.44;5061535;28;20452;-73
2022/12/14 01:05:02;;;;;;;16.40;10.70;;;;;;;-3.28;92.04;150538.13;5053015;28;20516;-73
2022/12/14 01:07:47;;;;;;;16.23;9.40;;;;;;;-3.32;91.82;150526.63;5065986;28;20869;-73
2022/12/14 01:10:32;;;;;;;13.20;9.70;;;;;;;-3.30;92.46;150531.72;5068591;28;20465;-73
2022/12/14 01:13:18;;;;;;;18.83;11.03;;;;;;;-3.30;92.85;150531.72;5054456;28;20450;-73
2022/12/14 01:16:05;;;;;;;17.10;10.30;;;;;;;-3.27;91.89;150539.41;5057178;28;20453;-72
2022/12/14 01:18:50;;;;;;;14.00;10.00;;;;;;;-3.02;91.11;150603.41;5070732;28;20409;-73
2022/12/14 01:21:37;;;;;;;17.13;10.43;;;;;;;-3.12;90.77;150579.06;5057278;28;20446;-72
2022/12/14 01:24:22;;;;;;;14.23;11.13;;;;;;;-3.12;90.74;150577.78;5058011;28;20453;-72
2022/12/14 01:27:07;;;;;;;14.20;8.90;;;;;;;-3.01;90.02;150604.66;5050788;28;20620;-73
2022/12/14 01:29:53;;;;;;;15.07;9.10;;;;;;;-3.03;91.27;150600.84;5056916;28;20527;-73
2022/12/14 01:32:38;;;;;;;17.30;11.17;;;;;;;-3.12;91.10;150577.78;5063579;28;20445;-73
2022/12/14 01:35:23;;;;;;;13.77;10.17;;;;;;;-3.16;91.28;150568.84;5059691;28;20931;-73
2022/12/14 01:38:10;;;;;;;15.53;10.27;;;;;;;-3.09;90.90;150586.75;5051401;28;20521;-73
2022/12/14 01:40:57;;;;;;;16.30;10.23;;;;;;;-3.11;90.70;150580.34;5066696;28;20611;-73
2022/12/14 01:43:47;;;;;;;13.03;9.87;;;;;;;-3.18;90.91;150562.47;5062284;28;20531;-73
2022/12/14 01:46:36;;;;;;;17.47;10.33;;;;;;;-3.20;91.24;150557.31;5059548;28;20457;-72
2022/12/14 01:49:24;;;;;;;15.40;10.60;;;;;;;-3.21;91.70;150554.78;5051637;28;20516;-73
2022/12/14 01:52:11;;;;;;;17.63;10.63;;;;;;;-3.15;91.60;150570.13;5074442;28;20925;-73
2022/12/14 01:55:01;;;;;;;21.53;11.57;;;;;;;-3.11;91.71;150581.66;5055009;28;20437;-73
2022/12/14 01:57:48;;;;;;;19.70;10.13;;;;;;;-3.04;91.96;150598.25;5055760;28;20418;-72
2022/12/14 02:00:34;;;;;;;16.80;11.70;;;;;;;-3.03;91.83;150600.84;5055189;28;20863;-73
2022/12/14 02:03:21;;;;;;;16.40;9.80;;;;;;;-3.10;92.05;150582.94;5057419;28;20798;-73
2022/12/14 02:06:10;;;;;;;12.10;8.67;;;;;;;-2.99;90.74;150611.03;5049941;28;20530;-73
2022/12/14 02:08:57;;;;;;;13.53;9.03;;;;;;;-2.97;90.28;150616.19;5053932;28;20828;-72
2022/12/14 02:11:48;;;;;;;14.53;9.60;;;;;;;-2.99;90.38;150609.81;5051912;28;20422;-72
2022/12/14 02:14:34;;;;;;;16.10;11.03;;;;;;;-3.01;89.73;150605.94;5059834;28;20897;-72
2022/12/14 02:17:19;;;;;;;16.50;11.43;;;;;;;-3.01;90.22;150604.66;5063841;28;20524;-73
2022/12/14 02:20:06;;;;;;;13.90;9.80;;;;;;;-2.89;90.86;150636.69;5059339;28;20581;-73
2022/12/14 02:23:17;;;;;;;14.33;10.20;;;;;;;-3.02;90.72;150603.41;5069185;28;20438;-73
2022/12/14 02:26:30;;;;;;;16.27;9.83;;;;;;;-3.03;91.73;150599.53;5054176;28;20465;-72
2022/12/14 02:29:52;;;;;;;16.07;10.53;;;;;;;-3.07;91.74;150591.84;5058418;28;20462;-73
2022/12/14 02:33:02;;;;;;;15.60;10.50;;;;;;;-3.06;91.26;150593.16;5055100;28;20438;-73
2022/12/14 02:35:51;;;;;;;16.33;10.07;;;;;;;-3.03;91.82;150600.84;5058957;28;20963;-73
2022/12/14 02:38:48;;;;;;;17.20;11.00;;;;;;;-3.00;91.89;150607.22;5061301;28;20430;-73
2022/12/14 02:41:38;;;;;;;21.40;11.60;;;;;;;-3.04;91.73;150598.25;5062634;28;20485;-72
2022/12/14 02:44:30;;;;;;;17.87;12.53;;;;;;;-3.07;91.96;150590.56;5070870;28;20506;-73
2022/12/14 02:47:22;;;;;;;14.50;11.83;;;;;;;-3.10;92.42;150582.94;5059553;28;20470;-73
2022/12/14 02:50:13;;;;;;;16.37;11.27;;;;;;;-3.01;92.65;150605.94;5061938;28;20442;-73
2022/12/14 02:53:07;;;;;;;15.77;11.53;;;;;;;-3.02;92.80;150603.41;5055057;28;20407;-72
2022/12/14 02:55:54;;;;;;;19.03;11.00;;;;;;;-2.95;92.50;150621.31;5060921;28;20521;-72
2022/12/14 02:58:41;;;;;;;16.67;12.13;;;;;;;-2.90;92.70;150634.09;5067287;28;20556;-73
2022/12/14 03:01:29;;;;;;;17.87;11.50;;;;;;;-2.86;93.50;150644.31;5059217;28;20531;-72
2022/12/14 03:04:16;;;;;;;18.10;11.83;;;;;;;-2.80;93.54;150658.41;5059498;28;20511;-73
2022/12/14 03:07:03;;;;;;;17.37;11.40;;;;;;;-2.90;93.38;150634.09;5054827;28;20411;-74
2022/12/14 03:09:48;;;;;;;17.90;10.87;;;;;;;-2.91;93.34;150631.53;5053343;28;20603;-74
2022/12/14 03:12:34;;;;;;;17.63;12.17;;;;;;;-2.92;94.19;150629.00;5055470;28;20457;-74
2022/12/14 03:15:21;;;;;;;17.63;11.00;;;;;;;-2.91;94.24;150630.28;5055087;28;20495;-74
2022/12/14 03:18:09;;;;;;;18.40;12.07;;;;;;;-2.83;94.96;150652.00;5060950;28;20434;-74
2022/12/14 03:20:58;;;;;;;18.83;12.17;;;;;;;-2.86;95.34;150644.31;5059516;28;20469;-74
2022/12/14 03:23:47;;;;;;;18.57;12.17;;;;;;;-2.81;95.08;150657.16;5065209;28;20527;-73
2022/12/14 03:26:34;;;;;;;16.20;11.83;;;;;;;-2.90;95.72;150634.09;5053655;28;20445;-73
2022/12/14 03:29:22;;;;;;;18.73;12.30;;;;;;;-2.95;96.97;150620.00;5054363;28;20458;-73
2022/12/14 03:32:10;;;;;;;21.40;11.50;;;;;;;-2.85;97.48;150646.91;5062899;28;20450;-74
2022/12/14 03:34:58;;;;;;;20.60;11.90;;;;;;;-2.92;97.60;150629.00;5054610;28;20524;-73
2022/12/14 03:37:48;;;;;;;20.57;13.03;;;;;;;-2.92;97.83;150627.69;5062174;28;20547;-73
2022/12/14 03:40:36;;;;;;;20.77;11.90;;;;;;;-3.02;98.28;150603.41;5062597;28;20461;-74
2022/12/14 03:43:27;;;;;;;15.00;11.20;;;;;;;-3.01;98.14;150605.94;5054452;28;20525;-73
2022/12/14 03:46:14;;;;;;;15.70;11.27;;;;;;;-2.97;98.47;150614.91;5066997;28;20488;-73
2022/12/14 03:49:06;;;;;;;19.87;12.80;;;;;;;-3.00;98.96;150608.50;5063329;28;20527;-73
2022/12/14 03:51:57;;;;;;;17.40;11.50;;;;;;;-2.98;99.50;150613.63;5058842;28;20512;-73
2022/12/14 03:54:50;;;;;;;18.07;13.07;;;;;;;-2.99;99.20;150611.03;5059319;28;20461;-73
2022/12/14 03:57:46;;;;;;;16.83;10.53;;;;;;;-2.96;99.35;150618.72;5061717;28;20544;-73
2022/12/14 04:00:36;;;;;;;17.80;11.47;;;;;;;-2.90;99.55;150632.81;5057656;28;20458;-73
2022/12/14 04:03:27;;;;;;;19.40;12.30;;;;;;;-2.91;99.20;150631.53;5064915;28;20427;-73
2022/12/14 04:06:20;;;;;;;18.40;12.40;;;;;;;-3.02;99.82;150603.41;5073928;28;20519;-74
2022/12/14 04:09:17;;;;;;;20.43;11.97;;;;;;;-3.01;100.00;150604.66;5055401;28;20461;-73
2022/12/14 04:21:34;;;;;;;20.27;12.97;;;;;;;-2.83;99.56;150652.00;5057976;28;20440;-73
2022/12/14 04:27:36;;;;;;;23.43;13.10;;;;;;;-2.90;99.03;150634.09;5066375;28;20487;-73
2022/12/14 04:30:20;;;;;;;16.10;11.80;;;;;;;-2.88;100.00;150639.22;5061598;28;20481;-73
2022/12/14 04:36:06;;;;;;;19.00;12.30;;;;;;;-2.92;99.76;150629.00;5059276;28;20534;-73
2022/12/14 04:38:54;;;;;;;20.80;13.30;;;;;;;-2.97;99.61;150616.19;5054512;28;20447;-73
2022/12/14 04:41:41;;;;;;;22.47;12.77;;;;;;;-2.90;99.29;150632.81;5066596;28;20597;-73
2022/12/14 04:44:34;;;;;;;22.70;12.43;;;;;;;-2.96;99.53;150617.44;5058381;28;20592;-74
2022/12/14 04:47:20;;;;;;;18.23;11.53;;;;;;;-3.00;99.76;150608.50;5065424;28;20445;-73
2022/12/14 04:50:09;;;;;;;17.73;12.67;;;;;;;-3.01;99.63;150605.94;5062972;28;20486;-74
2022/12/14 04:52:58;;;;;;;17.90;12.70;;;;;;;-2.99;99.45;150611.03;5054314;28;20583;-73
2022/12/14 04:55:48;;;;;;;19.40;13.33;;;;;;;-2.95;99.08;150621.31;5052303;28;20529;-73
2022/12/14 04:58:34;;;;;;;19.37;12.77;;;;;;;-2.90;99.24;150632.81;5060625;28;20583;-73
2022/12/14 05:01:29;;;;;;;19.27;13.30;;;;;;;-2.90;99.53;150634.09;5052419;28;20453;-75
2022/12/14 05:04:22;;;;;;;19.17;12.60;;;;;;;-2.93;99.09;150626.41;5068108;28;20491;-73
2022/12/14 05:07:13;;;;;;;19.57;12.37;;;;;;;-2.88;99.45;150639.22;5066585;28;21194;-73
2022/12/14 05:10:00;;;;;;;19.60;13.13;;;;;;;-2.75;99.69;150671.19;5053972;28;20481;-74
2022/12/14 05:12:52;;;;;;;21.60;13.70;;;;;;;-2.78;99.04;150664.78;5057435;28;20463;-73
2022/12/14 05:15:41;;;;;;;19.80;13.20;;;;;;;-2.87;98.85;150640.50;5057125;28;20466;-74
2022/12/14 05:18:27;;;;;;;20.37;13.33;;;;;;;-2.93;99.86;150626.41;5063820;28;20493;-73
2022/12/14 05:21:45;;;;;;;20.47;13.70;;;;;;;-2.95;99.94;150621.31;5066667;28;20452;-73
2022/12/14 05:24:19;;;;;;;19.90;13.57;;;;;;;-2.97;100.00;150616.19;5052196;28;20419;-73
2022/12/14 05:27:04;;;;;;;21.90;15.53;;;;;;;-2.98;100.00;150613.63;5058501;28;20552;-73
2022/12/14 05:29:49;;;;;;;21.40;16.23;;;;;;;-2.97;100.00;150616.19;5054757;28;20540;-73
2022/12/14 05:32:34;;;;;;;25.20;16.80;;;;;;;-2.87;100.00;150640.50;5053832;28;20565;-74
2022/12/14 05:35:21;;;;;;;27.20;17.93;;;;;;;-2.96;100.00;150618.72;5055005;28;20652;-74
2022/12/14 05:38:08;;;;;;;28.20;17.57;;;;;;;-2.88;100.00;150637.91;5069496;28;20529;-74
2022/12/14 05:40:53;;;;;;;21.67;15.07;;;;;;;-2.84;100.00;150649.47;5068475;28;20535;-74
2022/12/14 05:43:39;;;;;;;26.00;15.50;;;;;;;-2.90;100.00;150634.09;5062361;28;20482;-73
2022/12/14 05:46:24;;;;;;;26.33;17.63;;;;;;;-2.86;100.00;150643.06;5063862;28;20587;-73
2022/12/14 05:49:09;;;;;;;22.60;15.83;;;;;;;-2.85;100.00;150645.59;5061836;28;20468;-73
2022/12/14 05:51:56;;;;;;;28.80;17.50;;;;;;;-2.88;100.00;150637.91;5062467;28;20412;-74
2022/12/14 05:54:41;;;;;;;21.47;15.27;;;;;;;-2.83;100.00;150650.75;5056114;28;20461;-73
2022/12/14 05:57:27;;;;;;;29.30;18.07;;;;;;;-2.81;100.00;150655.88;5064827;28;20587;-73
2022/12/14 06:00:13;;;;;;;25.10;16.90;;;;;;;-2.80;100.00;150658.41;5083356;28;20436;-73
2022/12/14 06:02:58;;;;;;;24.50;18.37;;;;;;;-2.77;100.00;150666.09;5053818;28;20484;-73
2022/12/14 06:05:44;;;;;;;30.80;20.07;;;;;;;-2.80;100.00;150659.69;5061725;28;20527;-72
2022/12/14 06:08:35;;;;;;;24.33;17.40;;;;;;;-2.76;100.00;150668.66;5058960;28;20417;-73
2022/12/14 06:11:22;;;;;;;29.77;17.93;;;;;;;-2.67;100.00;150691.69;5053565;28;20493;-73
2022/12/14 06:14:08;;;;;;;25.17;16.60;;;;;;;-2.68;100.00;150690.44;5056323;28;20604;-73
2022/12/14 06:16:53;;;;;;;22.03;16.33;;;;;;;-2.74;100.00;150673.78;5059763;28;20936;-73
2022/12/14 06:19:39;;;;;;;25.47;17.10;;;;;;;-2.72;100.00;150680.16;5050827;28;20569;-73
2022/12/14 06:22:25;;;;;;;25.27;16.77;;;;;;;-2.73;100.00;150676.34;5060878;28;20734;-73
2022/12/14 06:25:12;;;;;;;26.93;17.87;;;;;;;-2.71;100.00;150682.75;5069331;28;20487;-73
2022/12/14 06:27:57;;;;;;;26.27;18.33;;;;;;;-2.68;100.00;150690.44;5068933;28;20460;-72
2022/12/14 06:30:46;;;;;;;26.67;17.40;;;;;;;-2.69;100.00;150687.84;5036335;28;20515;-73
2022/12/14 06:33:32;;;;;;;30.50;18.10;;;;;;;-2.68;100.00;150690.44;5063305;28;20937;-73
2022/12/14 06:36:18;;;;;;;25.67;16.23;;;;;;;-2.68;100.00;150690.44;5046764;28;20462;-73
2022/12/14 06:39:06;;;;;;;27.50;17.27;;;;;;;-2.62;100.00;150705.75;5046277;28;20822;-73
2022/12/14 06:41:52;;;;;;;27.20;18.40;;;;;;;-2.61;100.00;150708.34;5048016;28;20430;-73
2022/12/14 06:44:37;;;;;;;22.40;16.37;;;;;;;-2.52;100.00;150731.41;5047033;28;20450;-73
2022/12/14 06:47:23;;;;;;;26.13;20.30;;;;;;;-2.54;100.00;150726.25;5047256;28;20501;-74
2022/12/14 06:50:09;;;;;;;24.70;17.53;;;;;;;-2.59;100.00;150713.44;5049647;28;20477;-74
2022/12/14 06:52:55;;;;;;;23.73;16.77;;;;;;;-2.59;100.00;150713.44;5046418;28;20454;-74
2022/12/14 06:55:40;;;;;;;28.87;17.73;;;;;;;-2.62;100.00;150704.53;5049784;28;20442;-73
2022/12/14 06:58:27;;;;;;;27.23;19.30;;;;;;;-2.61;100.00;150708.34;5045969;28;20474;-73
2022/12/14 07:01:14;;;;;;;25.30;16.93;;;;;;;-2.60;100.00;150709.63;5041802;28;20933;-73
2022/12/14 07:04:00;;;;;;;28.23;18.00;;;;;;;-2.57;100.00;150718.56;5042061;28;20458;-73
2022/12/14 07:06:45;;;;;;;27.53;17.97;;;;;;;-2.54;100.00;150724.97;5048600;28;20885;-73
2022/12/14 07:09:30;;;;;;;28.57;17.63;;;;;;;-2.57;100.00;150718.56;5047202;28;20544;-73
2022/12/14 07:12:16;;;;;;;25.63;17.03;;;;;;;-2.59;100.00;150713.44;5031730;28;20770;-73
2022/12/14 07:15:02;;;;;;;30.73;19.77;;;;;;;-2.63;100.00;150703.22;5052728;28;20577;-73
2022/12/14 07:17:48;;;;;;;32.00;19.60;;;;;;;-2.58;100.00;150716.03;5052438;28;20495;-74
2022/12/14 07:20:33;;;;;;;28.20;18.30;;;;;;;-2.55;100.00;150722.44;5052188;28;20445;-73
2022/12/14 07:23:19;;;;;;;28.87;17.30;;;;;;;-2.52;100.00;150731.41;5057149;28;20493;-73
2022/12/14 07:26:06;;;;;;;26.13;18.17;;;;;;;-2.40;100.00;150759.53;5063419;28;20450;-73
2022/12/14 07:28:53;;;;;;;30.73;19.17;;;;;;;-2.52;100.00;150730.13;5061784;28;20429;-73
2022/12/14 07:31:39;;;;;;;29.57;19.10;;;;;;;-2.49;100.00;150739.03;5056095;28;20469;-73
2022/12/14 07:34:24;;;;;;;33.30;20.97;;;;;;;-2.57;100.00;150718.56;5084847;28;20477;-73
2022/12/14 07:37:10;;;;;;;27.67;19.87;;;;;;;-2.54;100.00;150724.97;5059497;28;21003;-73
2022/12/14 07:39:55;;;;;;;30.30;20.17;;;;;;;-2.55;100.00;150722.44;5069893;28;20445;-73
2022/12/14 07:42:40;;;;;;;28.80;20.40;;;;;;;-2.54;100.00;150726.25;5059864;28;20414;-73
2022/12/14 07:45:28;;;;;;;30.37;21.00;;;;;;;-2.49;100.00;150739.03;5064419;28;20528;-73
2022/12/14 07:48:15;;;;;;;31.40;19.80;;;;;;;-2.43;100.00;150751.84;5058198;28;20430;-73
2022/12/14 07:51:04;;;;;;;30.90;19.07;;;;;;;-2.40;100.00;150760.81;5060164;28;20472;-73
2022/12/14 07:53:50;;;;;;;30.57;19.30;;;;;;;-2.36;100.00;150771.09;5060720;28;20434;-72
2022/12/14 07:56:38;;;;;;;36.20;21.53;;;;;;;-2.27;100.00;150792.81;5057002;28;20550;-73
2022/12/14 07:59:23;;;;;;;34.90;21.77;;;;;;;-2.31;100.00;150782.59;5061071;28;20477;-73
2022/12/14 08:02:12;;;;;;;32.97;20.40;;;;;;;-2.32;100.00;150781.31;5059222;28;20920;-73
2022/12/14 08:04:59;;;;;;;31.00;21.23;;;;;;;-2.25;100.00;150797.97;5067492;28;20574;-74
2022/12/14 08:07:45;;;;;;;32.43;21.50;;;;;;;-2.26;100.00;150795.41;5053853;28;20473;-74
2022/12/14 08:10:31;;;;;;;33.73;21.20;;;;;;;-2.21;100.00;150809.50;5053678;28;20529;-73
2022/12/14 08:13:16;;;;;;;31.87;19.43;;;;;;;-2.23;100.00;150804.38;5058975;28;20448;-73
2022/12/14 08:16:03;;;;;;;29.30;19.53;;;;;;;-2.28;100.00;150790.28;5054854;28;20937;-73
2022/12/14 08:18:48;;;;;;;27.13;19.00;;;;;;;-2.25;100.00;150797.97;5058971;28;20433;-74
2022/12/14 08:21:35;;;;;;;29.97;20.03;;;;;;;-2.16;100.00;150822.28;5073319;28;20425;-73
2022/12/14 08:24:20;;;;;;;32.23;20.20;;;;;;;-2.18;100.00;150815.91;5057935;28;20433;-73
2022/12/14 08:27:05;;;;;;;31.97;20.67;;;;;;;-2.19;100.00;150813.31;5064832;28;20540;-73
2022/12/14 08:29:50;;;;;;;26.53;18.10;;;;;;;-2.18;100.00;150815.91;5067415;28;20611;-73
2022/12/14 08:32:36;;;;;;;28.23;19.13;;;;;;;-2.15;100.00;150823.59;5059486;28;20795;-73
2022/12/14 08:35:21;;;;;;;30.10;19.30;;;;;;;-2.10;100.00;150837.69;5062152;28;20535;-72
2022/12/14 08:38:08;;;;;;;31.93;19.83;;;;;;;-2.10;100.00;150836.38;5067998;28;20504;-73
2022/12/14 08:40:54;;;;;;;29.73;19.27;;;;;;;-2.06;100.00;150846.59;5064527;28;20460;-74
2022/12/14 08:43:40;;;;;;;32.30;20.80;;;;;;;-2.01;100.00;150859.41;5053774;28;20454;-73
2022/12/14 08:46:27;;;;;;;27.37;20.17;;;;;;;-1.96;100.00;150872.25;5059282;28;20476;-74
2022/12/14 08:49:12;;;;;;;27.27;18.23;;;;;;;-1.92;100.00;150882.50;5058764;28;20778;-74
2022/12/14 08:51:58;;;;;;;28.73;19.10;;;;;;;-1.93;100.00;150879.91;5060367;28;20434;-74
2022/12/14 08:54:45;;;;;;;30.47;20.97;;;;;;;-1.95;100.00;150874.78;5053472;28;21053;-74
2022/12/14 08:57:30;;;;;;;33.70;19.93;;;;;;;-1.93;100.00;150879.91;5077154;28;20449;-74
2022/12/14 09:00:16;;;;;;;30.13;19.20;;;;;;;-1.91;100.00;150885.06;5061088;28;20457;-74
2022/12/14 09:03:02;;;;;;;30.77;18.90;;;;;;;-1.72;100.00;150933.72;5052560;28;20438;-74
2022/12/14 09:05:47;;;;;;;24.60;20.20;;;;;;;-1.69;100.00;150940.13;5061747;28;20449;-74
2022/12/14 09:08:33;;;;;;;25.33;18.70;;;;;;;-1.65;100.00;150951.69;5056218;28;20453;-74
2022/12/14 09:11:21;;;;;;;28.60;18.93;;;;;;;-1.69;100.00;150940.13;5054105;28;20490;-74
2022/12/14 09:14:06;;;;;;;26.80;18.10;;;;;;;-1.42;100.00;151009.31;5058749;28;20453;-75
2022/12/14 09:16:51;;;;;;;29.20;19.10;;;;;;;-1.56;100.00;150974.72;5061010;28;20847;-73
2022/12/14 09:19:36;;;;;;;29.37;19.67;;;;;;;-1.56;100.00;150973.47;5058257;28;20434;-73
2022/12/14 09:22:22;;;;;;;27.03;18.40;;;;;;;-1.64;100.00;150954.22;5057769;28;20433;-74
2022/12/14 09:25:08;;;;;;;26.27;18.50;;;;;;;-1.57;100.00;150970.91;5060302;28;20445;-74
2022/12/14 09:27:55;;;;;;;28.60;19.17;;;;;;;-1.61;100.00;150961.91;5057168;28;20446;-74
2022/12/14 09:30:40;;;;;;;30.57;19.57;;;;;;;-1.69;100.00;150940.13;5060001;28;20465;-73
2022/12/14 09:33:25;;;;;;;30.27;19.90;;;;;;;-1.71;100.00;150936.28;5056340;28;20501;-74
2022/12/14 09:36:13;;;;;;;31.83;19.13;;;;;;;-1.66;100.00;150949.09;5064207;28;20584;-72
2022/12/14 09:38:58;;;;;;;26.23;18.80;;;;;;;-1.69;100.00;150941.41;5053337;28;20557;-74
2022/12/14 09:41:52;;;;;;;34.00;19.57;;;;;;;-1.62;100.00;150959.38;5059677;28;20559;-73
2022/12/14 09:44:48;;;;;;;27.57;19.20;;;;;;;-1.52;100.00;150983.72;5066345;28;20477;-72
2022/12/14 09:47:40;;;;;;;28.60;19.50;;;;;;;-1.56;100.00;150974.72;5060171;28;20430;-72
2022/12/14 09:50:26;;;;;;;31.40;19.93;;;;;;;-1.54;100.00;150979.88;5063316;28;20462;-74
2022/12/14 09:53:13;;;;;;;30.90;20.90;;;;;;;-1.58;100.00;150969.59;5066086;28;20445;-73
2022/12/14 09:55:58;;;;;;;30.60;20.73;;;;;;;-1.61;100.00;150961.91;5062940;28;20456;-74
2022/12/14 09:58:51;;;;;;;28.67;20.23;;;;;;;-1.57;100.00;150970.91;5068730;28;20433;-74
2022/12/14 10:01:49;;;;;;;30.90;21.67;;;;;;;-1.51;100.00;150987.53;5052121;28;20948;-74
2022/12/14 10:04:44;;;;;;;28.43;19.80;;;;;;;-1.52;100.00;150983.72;5069572;28;20433;-74
2022/12/14 10:07:34;;;;;;;31.43;20.43;;;;;;;-1.56;100.00;150973.47;5060313;28;20469;-74
2022/12/14 10:10:25;;;;;;;29.20;21.13;;;;;;;-1.57;100.00;150972.19;5050256;28;20466;-74
2022/12/14 10:13:19;;;;;;;32.93;21.37;;;;;;;-1.56;100.00;150974.72;5051183;28;20450;-74
2022/12/14 10:16:12;;;;;;;31.77;21.17;;;;;;;-1.54;100.00;150979.88;5051621;28;20909;-74
2022/12/14 10:19:07;;;;;;;31.00;22.93;;;;;;;-1.53;100.00;150981.13;5050651;28;20402;-75
2022/12/14 10:21:54;;;;;;;33.17;23.27;;;;;;;-1.49;100.00;150991.41;5067191;28;20580;-73
2022/12/14 10:24:43;;;;;;;34.07;22.60;;;;;;;-1.45;100.00;151001.63;5067647;28;20979;-73
2022/12/14 10:27:29;;;;;;;31.80;23.10;;;;;;;-1.43;100.00;151008.03;5054128;28;20441;-74
2022/12/14 10:30:17;;;;;;;33.97;22.93;;;;;;;-1.38;100.00;151020.84;5055541;28;20465;-74
2022/12/14 10:33:10;;;;;;;31.43;22.93;;;;;;;-1.39;100.00;151018.31;5050156;28;20446;-74
2022/12/14 10:35:59;;;;;;;30.33;21.97;;;;;;;-1.40;100.00;151015.72;5050256;28;20434;-75
2022/12/14 10:38:50;;;;;;;35.50;24.20;;;;;;;-1.41;100.00;151011.91;5060244;28;20449;-74
2022/12/14 10:41:39;;;;;;;29.80;22.23;;;;;;;-1.44;100.00;151004.22;5050848;28;20929;-74
2022/12/14 10:44:30;;;;;;;32.10;22.93;;;;;;;-1.46;100.00;150999.09;5051086;28;20407;-74
2022/12/14 10:47:20;;;;;;;30.90;21.40;;;;;;;-1.47;100.00;150997.81;5059175;28;20429;-74
2022/12/14 10:50:13;;;;;;;31.77;22.67;;;;;;;-1.43;100.00;151008.03;5054216;28;20464;-74
2022/12/14 10:53:02;;;;;;;32.90;21.63;;;;;;;-1.42;100.00;151010.63;5072825;28;20828;-74
2022/12/14 10:55:48;;;;;;;28.90;21.17;;;;;;;-1.38;100.00;151020.84;5073367;28;20472;-74
2022/12/14 10:58:33;;;;;;;31.60;21.00;;;;;;;-1.33;100.00;151032.41;5059041;28;20437;-74
2022/12/14 11:01:20;;;;;;;37.53;24.40;;;;;;;-1.28;100.00;151046.50;5071178;28;20896;-74
2022/12/14 11:04:10;;;;;;;34.20;22.43;;;;;;;-1.27;100.00;151047.75;5055145;28;20549;-74
2022/12/14 11:06:57;;;;;;;31.27;23.10;;;;;;;-1.30;100.00;151040.13;5065464;28;20445;-74
2022/12/14 11:09:44;;;;;;;35.80;22.20;;;;;;;-1.31;100.00;151037.53;5053923;28;20482;-75
2022/12/14 11:12:29;;;;;;;33.77;23.40;;;;;;;-1.29;100.00;151043.94;5055536;28;20990;-74
2022/12/14 11:15:24;;;;;;;34.97;23.97;;;;;;;-1.23;100.00;151059.34;5059061;28;20464;-74
2022/12/14 11:18:24;;;;;;;32.20;22.70;;;;;;;-1.16;100.00;151074.66;5054640;28;20402;-74
2022/12/14 11:21:14;;;;;;;35.43;23.97;;;;;;;-1.10;100.00;151090.06;5069663;28;20460;-74
2022/12/14 11:24:02;;;;;;;32.03;23.27;;;;;;;-1.06;100.00;151100.34;5072223;28;20623;-74
2022/12/14 11:26:49;;;;;;;36.27;24.67;;;;;;;-1.06;100.00;151100.34;5057395;28;20425;-74
2022/12/14 11:29:38;;;;;;;38.60;26.60;;;;;;;-1.04;100.00;151105.47;5061841;28;20437;-74
2022/12/14 11:32:24;;;;;;;37.00;25.70;;;;;;;-1.02;100.00;151110.59;5074271;28;20460;-74
2022/12/14 11:35:15;;;;;;;40.53;25.63;;;;;;;-1.03;100.00;151109.28;5065550;28;20594;-74
2022/12/14 11:38:01;;;;;;;35.43;23.10;;;;;;;-0.99;100.00;151118.28;5061340;28;20429;-74
2022/12/14 11:40:47;;;;;;;31.73;22.60;;;;;;;-0.96;100.00;151125.97;5074859;28;20690;-74
2022/12/14 11:43:34;;;;;;;31.90;24.10;;;;;;;-0.94;100.00;151132.38;5067380;28;20464;-74
2022/12/14 11:46:19;;;;;;;36.90;24.10;;;;;;;-0.90;100.00;151141.38;5061636;28;20540;-74
2022/12/14 11:49:05;;;;;;;37.53;24.10;;;;;;;-0.91;100.00;151140.09;5060336;28;20913;-74
2022/12/14 11:51:58;;;;;;;32.03;22.40;;;;;;;-0.77;100.00;151174.72;5069839;28;20494;-74
2022/12/14 11:54:44;;;;;;;32.47;22.50;;;;;;;-0.85;100.00;151154.19;5072479;28;20449;-74
2022/12/14 11:57:32;;;;;;;31.13;22.43;;;;;;;-0.85;100.00;151154.19;5055930;28;20500;-74
2022/12/14 12:00:25;;;;;;;33.97;22.60;;;;;;;-0.82;100.00;151163.16;5069942;28;20484;-73
2022/12/14 12:03:15;;;;;;;34.33;21.83;;;;;;;-0.77;100.00;151175.97;5069125;28;20499;-74
2022/12/14 12:06:02;;;;;;;31.90;21.10;;;;;;;-0.72;100.00;151187.53;5060606;28;20543;-74
2022/12/14 12:08:47;;;;;;;31.43;24.10;;;;;;;-0.66;100.00;151204.19;5064111;28;20464;-74
2022/12/14 12:11:34;;;;;;;33.57;21.67;;;;;;;-0.58;100.00;151223.41;5066237;28;20818;-74
2022/12/14 12:14:26;;;;;;;32.77;22.60;;;;;;;-0.51;100.00;151240.09;5056040;28;20418;-74
2022/12/14 12:17:19;;;;;;;36.50;23.13;;;;;;;-0.42;100.00;151264.47;5062262;28;20445;-74
2022/12/14 12:20:14;;;;;;;33.00;23.77;;;;;;;-0.46;100.00;151254.22;5059692;28;20842;-74
2022/12/14 12:23:04;;;;;;;36.20;24.77;;;;;;;-0.47;100.00;151251.63;5054492;28;20442;-74
2022/12/14 12:25:51;;;;;;;39.17;24.60;;;;;;;-0.44;100.00;151259.34;5054336;28;20577;-74
2022/12/14 12:28:42;;;;;;;34.57;25.83;;;;;;;-0.42;100.00;151264.47;5072141;28;20989;-74
2022/12/14 12:31:32;;;;;;;40.40;25.80;;;;;;;-0.37;100.00;151277.28;5056480;28;20870;-74
2022/12/14 12:34:22;;;;;;;34.37;24.60;;;;;;;-0.32;100.00;151290.09;5053237;28;20763;-71
2022/12/14 12:37:11;;;;;;;34.27;25.50;;;;;;;-0.31;100.00;151292.69;5054185;28;20585;-73
2022/12/14 12:40:00;;;;;;;35.73;23.17;;;;;;;-0.32;100.00;151290.09;5060120;28;20442;-73
2022/12/14 12:42:48;;;;;;;36.60;23.00;;;;;;;-0.33;100.00;151286.28;5053337;28;20872;-74
2022/12/14 12:45:36;;;;;;;37.43;24.90;;;;;;;-0.34;100.00;151284.97;5052171;28;20466;-74
2022/12/14 12:48:24;;;;;;;36.73;26.07;;;;;;;-0.32;100.00;151288.84;5071229;28;20605;-74
2022/12/14 12:51:14;;;;;;;33.17;24.70;;;;;;;-0.30;100.00;151295.28;5060555;28;20485;-74
2022/12/14 12:54:02;;;;;;;38.77;24.83;;;;;;;-0.22;100.00;151314.50;5056165;28;20553;-73